Time;durP1;ratioP1;P1;durP2;ratioP2;P2;SDS_P1;SDS_P2;PMS_P1;PMS_P2;Temp;Humidity;BMP_temperature;BMP_pressure;BME280_temperature;BME280_humidity;BME280_pressure;Samples;Min_cycle;Max_cycle;Signal;HPM_P1;HPM_P2
2020/12/15 00:02:23;;;;;;;23.42;15.32;;;;;;;3.63;95.19;100683.66;4974706;28;20049;-55
2020/12/15 00:04:49;;;;;;;21.67;16.02;;;;;;;3.57;96.15;100680.81;4972236;28;20354;-52
2020/12/15 00:07:16;;;;;;;24.10;16.80;;;;;;;3.96;94.61;100671.91;4983303;28;20050;-51
2020/12/15 00:09:44;;;;;;;24.48;15.70;;;;;;;3.83;94.18;100677.97;4972647;28;20051;-51
2020/12/15 00:12:10;;;;;;;21.08;14.63;;;;;;;3.70;94.98;100678.16;4972602;28;20580;-54
2020/12/15 00:14:38;;;;;;;22.63;15.20;;;;;;;4.09;93.00;100674.28;4972929;28;20136;-50
2020/12/15 00:17:05;;;;;;;19.42;13.63;;;;;;;4.21;92.01;100670.66;4971807;28;20054;-57
2020/12/15 00:19:31;;;;;;;23.60;15.20;;;;;;;4.16;91.97;100662.81;4973696;28;20061;-53
2020/12/15 00:21:58;;;;;;;22.38;14.52;;;;;;;4.35;91.12;100669.69;4972150;28;20077;-56
2020/12/15 00:24:24;;;;;;;21.30;14.30;;;;;;;4.08;91.91;100675.06;4970505;28;20115;-53
2020/12/15 00:26:51;;;;;;;22.00;14.57;;;;;;;4.21;91.79;100665.59;4972004;28;20125;-50
2020/12/15 00:29:19;;;;;;;21.13;14.43;;;;;;;4.14;91.24;100664.38;4973954;28;20104;-53
2020/12/15 00:31:46;;;;;;;18.80;13.73;;;;;;;4.40;90.68;100668.25;4971658;28;20058;-53
2020/12/15 00:34:12;;;;;;;19.77;14.43;;;;;;;4.08;91.95;100670.00;4972937;28;20380;-49
2020/12/15 00:36:39;;;;;;;20.40;14.45;;;;;;;4.48;89.97;100671.13;4972963;28;20459;-51
2020/12/15 00:39:06;;;;;;;19.92;13.93;;;;;;;4.45;89.63;100673.53;4972358;28;20065;-55
2020/12/15 00:41:33;;;;;;;22.50;15.07;;;;;;;4.11;91.30;100679.41;4973391;28;20046;-50
2020/12/15 00:43:59;;;;;;;18.88;13.43;;;;;;;4.32;91.25;100672.91;4972307;28;20046;-53
2020/12/15 00:46:26;;;;;;;18.25;13.75;;;;;;;4.36;90.59;100668.00;4973976;28;20074;-50
2020/12/15 00:48:52;;;;;;;19.85;13.73;;;;;;;4.25;90.49;100670.88;4971622;28;20049;-53
2020/12/15 00:51:20;;;;;;;20.83;13.63;;;;;;;4.39;90.05;100673.22;4972339;28;20553;-56
2020/12/15 00:53:47;;;;;;;19.05;13.38;;;;;;;4.43;90.14;100675.97;4971226;28;20047;-56
2020/12/15 00:56:14;;;;;;;19.58;14.23;;;;;;;4.34;90.78;100673.88;4972585;28;20057;-53
2020/12/15 00:58:42;;;;;;;21.30;13.88;;;;;;;4.37;90.47;100677.34;4971938;28;20051;-55
2020/12/15 01:01:11;;;;;;;18.73;13.35;;;;;;;4.25;91.01;100675.94;4971874;28;20423;-52
2020/12/15 01:03:39;;;;;;;23.13;14.45;;;;;;;4.30;90.57;100668.56;4972173;28;20108;-55
2020/12/15 01:06:07;;;;;;;23.33;14.25;;;;;;;4.19;90.88;100672.22;4971315;28;20062;-51
2020/12/15 01:08:34;;;;;;;18.77;13.10;;;;;;;4.55;89.96;100668.13;4972902;28;20047;-55
2020/12/15 01:11:14;;;;;;;21.48;13.80;;;;;;;4.32;89.64;100654.31;4972396;28;20409;-52
2020/12/15 01:13:41;;;;;;;18.70;13.80;;;;;;;4.33;90.21;100648.44;4971862;28;20431;-53
2020/12/15 01:16:09;;;;;;;19.55;13.63;;;;;;;4.36;90.10;100646.06;4971385;28;20401;-52
2020/12/15 01:18:35;;;;;;;17.30;12.95;;;;;;;4.66;88.67;100648.34;4972316;28;20081;-57
2020/12/15 01:21:03;;;;;;;19.30;13.10;;;;;;;4.34;90.12;100646.00;4971000;28;20097;-54
2020/12/15 01:23:30;;;;;;;20.35;13.88;;;;;;;4.36;90.02;100645.19;4976455;28;20057;-50
2020/12/15 01:25:56;;;;;;;21.65;12.85;;;;;;;4.45;90.16;100640.56;4971287;28;20579;-55
2020/12/15 01:28:23;;;;;;;20.30;14.13;;;;;;;4.04;92.05;100644.44;4973387;28;20055;-52
2020/12/15 01:30:49;;;;;;;20.00;14.27;;;;;;;3.88;92.79;100639.38;4971096;28;20055;-50
2020/12/15 01:33:16;;;;;;;18.38;13.55;;;;;;;3.85;92.92;100635.03;4972350;28;20138;-56
2020/12/15 01:35:44;;;;;;;20.10;13.90;;;;;;;3.97;92.62;100642.38;4971419;28;20059;-52
2020/12/15 01:38:11;;;;;;;20.77;13.90;;;;;;;3.61;94.57;100633.75;4971662;28;20461;-57
2020/12/15 01:40:38;;;;;;;19.75;14.25;;;;;;;3.89;94.00;100628.47;4972001;28;20100;-54
2020/12/15 01:43:05;;;;;;;18.65;13.82;;;;;;;3.93;93.17;100627.81;4971137;28;20058;-52
2020/12/15 01:45:31;;;;;;;22.67;14.65;;;;;;;3.89;92.73;100639.47;4973078;28;20124;-52
2020/12/15 01:47:57;;;;;;;19.50;13.52;;;;;;;3.84;93.22;100630.75;4971006;28;20129;-55
2020/12/15 01:50:24;;;;;;;21.08;14.48;;;;;;;4.03;93.04;100622.44;4973345;28;20160;-53
2020/12/15 01:52:51;;;;;;;20.02;14.30;;;;;;;4.28;91.44;100612.72;4970838;28;20059;-53
2020/12/15 01:55:18;;;;;;;21.15;13.73;;;;;;;3.99;91.83;100608.75;4972738;28;20145;-50
2020/12/15 01:57:45;;;;;;;21.48;14.20;;;;;;;3.78;92.42;100615.22;4971533;28;20540;-51
2020/12/15 02:00:11;;;;;;;21.98;14.30;;;;;;;4.20;91.48;100608.94;4972059;28;20121;-54
2020/12/15 02:02:40;;;;;;;21.23;14.23;;;;;;;3.99;92.08;100601.13;4989244;28;20056;-49
2020/12/15 02:05:08;;;;;;;23.08;14.48;;;;;;;4.01;91.99;100612.19;4975310;28;20552;-55
2020/12/15 02:07:35;;;;;;;20.13;14.35;;;;;;;3.64;93.41;100606.91;4976200;28;20058;-50
2020/12/15 02:10:06;;;;;;;23.50;16.17;;;;;;;3.31;95.48;100601.84;4974584;28;20054;-51
2020/12/15 02:12:32;;;;;;;21.80;15.38;;;;;;;3.89;93.63;100595.53;4979842;28;20072;-57
2020/12/15 02:14:59;;;;;;;25.35;16.48;;;;;;;3.82;92.78;100604.47;4974925;28;20051;-51
2020/12/15 02:17:25;;;;;;;23.42;14.48;;;;;;;4.02;92.10;100605.47;4976833;28;20393;-56
2020/12/15 02:20:09;;;;;;;23.52;15.75;;;;;;;3.64;92.96;100606.91;4974441;28;20055;-53
2020/12/15 02:22:35;;;;;;;20.45;14.55;;;;;;;3.82;92.51;100607.00;4981488;28;20050;-52
2020/12/15 02:25:07;;;;;;;24.17;14.75;;;;;;;3.75;93.24;100598.22;4983703;28;20058;-54
2020/12/15 02:27:33;;;;;;;21.45;15.15;;;;;;;3.60;93.21;100605.00;4979812;28;20046;-57
2020/12/15 02:30:00;;;;;;;23.10;15.68;;;;;;;3.88;91.90;100598.84;4974670;28;20476;-55
2020/12/15 02:32:26;;;;;;;21.45;14.40;;;;;;;3.55;93.67;100599.72;4976581;28;20463;-54
2020/12/15 02:34:56;;;;;;;22.85;15.23;;;;;;;3.95;92.16;100606.84;4974267;28;20122;-54
2020/12/15 02:37:22;;;;;;;22.55;15.73;;;;;;;3.91;92.37;100611.66;4976181;28;20105;-57
2020/12/15 02:39:49;;;;;;;22.63;14.85;;;;;;;3.83;92.26;100618.88;4980577;28;20054;-55
2020/12/15 02:42:15;;;;;;;20.10;14.45;;;;;;;3.76;92.18;100619.34;4981317;28;20041;-52
2020/12/15 02:44:42;;;;;;;24.35;14.35;;;;;;;3.99;91.82;100625.59;4982150;28;20054;-55
2020/12/15 02:47:08;;;;;;;22.55;15.25;;;;;;;3.73;92.91;100620.06;4981862;28;20459;-54
2020/12/15 02:49:35;;;;;;;22.65;15.02;;;;;;;4.04;91.67;100626.72;4981453;28;20050;-56
2020/12/15 02:52:02;;;;;;;25.90;15.57;;;;;;;3.72;92.67;100625.06;4982774;28;20411;-57
2020/12/15 02:54:28;;;;;;;22.45;16.20;;;;;;;3.77;92.51;100627.03;4974173;28;20133;-56
2020/12/15 02:56:55;;;;;;;24.45;15.88;;;;;;;3.88;91.88;100637.69;4973485;28;20074;-54
2020/12/15 02:59:21;;;;;;;24.40;16.40;;;;;;;3.82;92.61;100633.19;4975927;28;20047;-57
2020/12/15 03:01:51;;;;;;;24.35;15.05;;;;;;;3.85;91.47;100640.09;4972996;28;20170;-57
2020/12/15 03:04:18;;;;;;;27.17;16.23;;;;;;;3.68;92.42;100643.41;4975463;28;20930;-53
2020/12/15 03:06:45;;;;;;;24.92;16.02;;;;;;;3.61;93.32;100633.75;4973637;28;20449;-56
2020/12/15 03:09:12;;;;;;;27.75;17.02;;;;;;;3.29;94.01;100628.72;4974344;28;20056;-52
2020/12/15 03:11:39;;;;;;;26.77;17.52;;;;;;;3.18;96.69;100622.19;4974266;28;20503;-54
2020/12/15 03:14:06;;;;;;;28.85;18.23;;;;;;;3.03;96.85;100624.78;4972402;28;20460;-54
2020/12/15 03:16:33;;;;;;;31.42;18.33;;;;;;;3.04;96.92;100618.06;4975165;28;20054;-52
2020/12/15 03:19:00;;;;;;;25.50;16.95;;;;;;;3.01;98.05;100625.50;4973370;28;20094;-55
2020/12/15 03:21:27;;;;;;;26.33;16.50;;;;;;;3.51;95.24;100633.28;4975576;28;20046;-55
2020/12/15 03:23:57;;;;;;;22.38;15.32;;;;;;;3.55;94.32;100631.75;4973384;28;20547;-54
2020/12/15 03:26:24;;;;;;;24.13;16.42;;;;;;;3.47;93.75;100633.03;4975343;28;20124;-54
2020/12/15 03:28:50;;;;;;;28.92;17.83;;;;;;;3.37;93.98;100635.84;4973126;28;22223;-57
2020/12/15 03:31:16;;;;;;;25.60;17.02;;;;;;;3.52;94.67;100627.41;4974198;28;20059;-51
2020/12/15 03:33:45;;;;;;;23.15;16.58;;;;;;;3.24;96.26;100621.69;4972676;28;20060;-52
2020/12/15 03:36:11;;;;;;;27.30;17.83;;;;;;;3.19;95.43;100621.44;4973726;28;20380;-53
2020/12/15 03:38:38;;;;;;;28.63;17.77;;;;;;;3.01;97.01;100628.03;4973629;28;20042;-56
2020/12/15 03:41:04;;;;;;;30.52;18.90;;;;;;;2.86;97.88;100612.00;4972292;28;20120;-54
2020/12/15 03:43:30;;;;;;;30.15;19.05;;;;;;;3.31;97.19;100617.00;4974596;28;20172;-55
2020/12/15 03:45:57;;;;;;;29.20;19.05;;;;;;;3.04;96.84;100611.34;4973089;28;20055;-54
2020/12/15 03:48:24;;;;;;;28.73;19.42;;;;;;;2.93;97.60;100620.00;4975335;28;20590;-49
2020/12/15 03:50:50;;;;;;;27.80;18.35;;;;;;;3.00;98.34;100622.06;4972643;28;20058;-51
2020/12/15 03:53:16;;;;;;;28.92;19.02;;;;;;;3.09;97.11;100623.38;4974376;28;20058;-54
2020/12/15 03:55:47;;;;;;;28.77;17.70;;;;;;;3.06;98.10;100621.56;4973355;28;20421;-52
2020/12/15 03:58:18;;;;;;;30.67;17.50;;;;;;;3.55;95.37;100624.16;4973838;28;20053;-56
2020/12/15 04:00:44;;;;;;;29.35;18.50;;;;;;;3.68;93.78;100613.03;4973168;28;20089;-57
2020/12/15 04:03:11;;;;;;;29.50;18.02;;;;;;;2.94;96.79;100624.28;4973307;28;20047;-57
2020/12/15 04:05:38;;;;;;;27.85;17.42;;;;;;;3.43;95.28;100643.78;4973581;28;20412;-57
2020/12/15 04:08:05;;;;;;;27.85;17.08;;;;;;;3.45;94.86;100645.59;4972278;28;20059;-56
2020/12/15 04:10:31;;;;;;;29.27;18.27;;;;;;;3.49;93.63;100659.28;4974381;28;20310;-57
2020/12/15 04:12:58;;;;;;;30.02;18.25;;;;;;;2.87;96.31;100639.91;4972311;28;20583;-57
2020/12/15 04:15:24;;;;;;;30.77;20.08;;;;;;;2.74;97.90;100647.59;4974729;28;20128;-57
2020/12/15 04:17:50;;;;;;;33.85;20.88;;;;;;;2.78;98.09;100639.41;4971994;28;20046;-54
2020/12/15 04:20:17;;;;;;;34.03;19.83;;;;;;;2.72;98.46;100642.44;4973838;28;20054;-51
2020/12/15 04:22:43;;;;;;;31.98;19.55;;;;;;;3.02;97.07;100645.81;4972325;28;20047;-53
2020/12/15 04:25:10;;;;;;;31.70;18.77;;;;;;;3.05;96.75;100645.09;4972728;28;20072;-56
2020/12/15 04:27:36;;;;;;;31.27;19.23;;;;;;;2.80;97.19;100640.34;4973319;28;20257;-52
2020/12/15 04:30:05;;;;;;;32.88;19.33;;;;;;;2.84;98.92;100643.91;4971970;28;20051;-57
2020/12/15 04:32:31;;;;;;;28.70;18.88;;;;;;;3.25;96.40;100643.66;4977024;28;20046;-54
2020/12/15 04:34:58;;;;;;;32.38;19.27;;;;;;;3.09;95.80;100636.88;4972403;28;20051;-54
2020/12/15 04:37:24;;;;;;;29.20;19.08;;;;;;;2.89;96.48;100634.94;4974158;28;20459;-52
2020/12/15 04:39:51;;;;;;;31.98;20.10;;;;;;;2.95;96.76;100635.25;4972399;28;20145;-53
2020/12/15 04:42:18;;;;;;;33.38;20.45;;;;;;;2.86;97.80;100634.75;4973436;28;20055;-55
2020/12/15 04:44:46;;;;;;;31.73;19.75;;;;;;;2.91;97.56;100640.94;4972111;28;20051;-53
2020/12/15 04:47:18;;;;;;;33.83;20.20;;;;;;;2.92;97.38;100643.56;4972690;28;20258;-50
2020/12/15 04:49:59;;;;;;;34.45;19.55;;;;;;;3.15;97.38;100649.88;4971954;28;20420;-53
2020/12/15 04:52:43;;;;;;;33.45;19.83;;;;;;;2.80;96.89;100632.75;4973994;28;20456;-52
2020/12/15 04:55:11;;;;;;;32.53;20.00;;;;;;;2.74;98.73;100634.94;4972251;28;20504;-50
2020/12/15 04:57:39;;;;;;;35.65;21.33;;;;;;;2.77;97.85;100637.63;4972541;28;20049;-53
2020/12/15 05:00:07;;;;;;;34.20;21.23;;;;;;;2.48;99.80;100626.75;4976509;28;20093;-55
2020/12/15 05:02:40;;;;;;;38.85;21.45;;;;;;;2.62;99.46;100629.19;4976274;28;20054;-53
2020/12/15 05:05:07;;;;;;;34.78;20.98;;;;;;;2.92;98.62;100627.53;4971498;28;20058;-50
2020/12/15 05:07:41;;;;;;;33.65;21.05;;;;;;;2.47;98.84;100619.09;4973256;28;20492;-53
2020/12/15 05:10:10;;;;;;;37.08;22.15;;;;;;;2.46;100.00;100607.25;4971769;28;20046;-52
2020/12/15 05:12:36;;;;;;;36.17;21.23;;;;;;;2.83;99.78;100615.25;4972517;28;20050;-51
2020/12/15 05:15:16;;;;;;;34.60;20.10;;;;;;;2.78;98.45;100622.56;4970844;28;20133;-53
2020/12/15 05:17:44;;;;;;;34.55;19.80;;;;;;;2.97;97.68;100621.06;4979527;28;20081;-55
2020/12/15 05:20:31;;;;;;;33.70;20.80;;;;;;;2.26;99.82;100623.78;4979134;28;20622;-52
2020/12/15 05:22:58;;;;;;;33.00;20.55;;;;;;;2.86;99.36;100637.28;4971200;28;20437;-53
2020/12/15 05:25:29;;;;;;;37.55;20.90;;;;;;;2.60;98.09;100638.38;4973358;28;20050;-55
2020/12/15 05:27:59;;;;;;;37.85;21.98;;;;;;;2.38;99.55;100637.13;4971082;28;20050;-55
2020/12/15 05:30:29;;;;;;;36.35;20.58;;;;;;;2.65;98.61;100636.97;4973411;28;20050;-48
2020/12/15 05:32:57;;;;;;;33.33;19.83;;;;;;;2.84;98.20;100628.75;4970719;28;20050;-54
2020/12/15 05:35:28;;;;;;;34.13;20.42;;;;;;;2.34;99.06;100625.09;4973376;28;20559;-56
2020/12/15 05:37:58;;;;;;;36.97;21.35;;;;;;;2.24;100.00;100631.28;4970504;28;20106;-54
2020/12/15 05:40:25;;;;;;;39.05;22.00;;;;;;;2.29;100.00;100644.19;4973251;28;20082;-54
2020/12/15 05:42:57;;;;;;;36.72;21.60;;;;;;;2.68;98.90;100644.69;4970740;28;20129;-54
2020/12/15 05:45:24;;;;;;;35.83;21.25;;;;;;;3.07;97.93;100646.06;4973311;28;20505;-56
2020/12/15 05:48:03;;;;;;;36.65;21.40;;;;;;;2.72;98.74;100647.50;4970610;28;20059;-53
2020/12/15 05:50:30;;;;;;;34.70;22.17;;;;;;;2.64;97.72;100642.81;4977485;28;20043;-54
2020/12/15 05:53:01;;;;;;;34.05;20.70;;;;;;;2.57;98.91;100641.56;4979961;28;20073;-54
2020/12/15 05:55:29;;;;;;;35.35;22.10;;;;;;;2.55;100.00;100631.38;4977293;28;20105;-57
2020/12/15 05:57:57;;;;;;;36.28;21.65;;;;;;;2.73;99.20;100641.66;4978210;28;20125;-54
2020/12/15 06:00:28;;;;;;;37.15;21.45;;;;;;;2.80;99.29;100638.69;4975973;28;20659;-55
2020/12/15 06:03:03;;;;;;;34.22;20.95;;;;;;;2.86;98.60;100628.03;4979591;28;20043;-54
2020/12/15 06:05:35;;;;;;;36.05;20.77;;;;;;;2.60;99.30;100629.13;4977210;28;20050;-54
2020/12/15 06:08:02;;;;;;;36.45;21.58;;;;;;;2.93;97.27;100629.25;4979986;28;20463;-56
2020/12/15 06:10:30;;;;;;;34.13;21.65;;;;;;;2.83;97.22;100632.06;4978750;28;20054;-55
2020/12/15 06:12:58;;;;;;;34.90;21.00;;;;;;;2.89;98.24;100628.22;4970495;28;20050;-54
2020/12/15 06:15:25;;;;;;;37.67;22.00;;;;;;;2.50;99.47;100622.69;4971885;28;20093;-55
2020/12/15 06:17:54;;;;;;;34.30;20.98;;;;;;;2.53;100.00;100620.31;4968828;28;20054;-55
2020/12/15 06:20:21;;;;;;;35.88;22.45;;;;;;;2.78;98.55;100617.50;4971026;28;20050;-52
2020/12/15 06:22:52;;;;;;;39.05;22.52;;;;;;;2.78;98.41;100611.59;4968963;28;20105;-56
2020/12/15 06:25:31;;;;;;;33.50;20.45;;;;;;;2.82;98.03;100621.09;4970684;28;20160;-56
2020/12/15 06:28:11;;;;;;;34.33;21.70;;;;;;;3.02;97.95;100624.72;4976640;28;20054;-57
2020/12/15 06:30:42;;;;;;;36.25;21.25;;;;;;;3.04;97.49;100626.50;4972631;28;20042;-51
2020/12/15 06:33:11;;;;;;;36.53;21.35;;;;;;;2.90;98.08;100624.03;4971000;28;20042;-56
2020/12/15 06:35:39;;;;;;;35.88;22.13;;;;;;;2.80;97.91;100626.03;4971673;28;20101;-54
2020/12/15 06:38:16;;;;;;;33.70;21.40;;;;;;;2.70;98.93;100621.25;4970485;28;20066;-50
2020/12/15 06:40:44;;;;;;;34.28;22.23;;;;;;;2.61;100.00;100620.75;4973793;28;20046;-55
2020/12/15 06:43:13;;;;;;;37.60;22.58;;;;;;;2.85;98.59;100620.38;4976603;28;20141;-58
2020/12/15 06:45:39;;;;;;;37.22;23.23;;;;;;;3.23;98.24;100625.84;4971065;28;20052;-49
2020/12/15 06:48:06;;;;;;;36.25;21.40;;;;;;;3.47;95.54;100617.84;4970616;28;20125;-47
2020/12/15 06:50:47;;;;;;;36.28;22.13;;;;;;;3.22;95.79;100615.66;4976971;28;20496;-48
2020/12/15 06:53:18;;;;;;;35.53;20.45;;;;;;;3.46;95.45;100621.16;4984567;28;20046;-48
2020/12/15 06:55:45;;;;;;;35.85;20.95;;;;;;;3.39;95.22;100630.09;4974334;28;20054;-50
2020/12/15 06:58:22;;;;;;;34.42;21.02;;;;;;;3.70;92.75;100624.13;4970316;28;20082;-50
2020/12/15 07:00:48;;;;;;;33.42;20.95;;;;;;;3.74;92.90;100623.47;4972190;28;20078;-52
2020/12/15 07:03:16;;;;;;;36.47;22.02;;;;;;;3.23;95.43;100623.31;4980795;28;20058;-46
2020/12/15 07:05:43;;;;;;;38.28;22.55;;;;;;;2.92;97.46;100612.34;4981896;28;20101;-48
2020/12/15 07:08:29;;;;;;;37.05;22.27;;;;;;;3.14;96.48;100606.78;4981721;28;20050;-51
2020/12/15 07:10:56;;;;;;;38.08;20.92;;;;;;;3.49;94.93;100601.94;4973359;28;20156;-51
2020/12/15 07:13:23;;;;;;;36.63;20.95;;;;;;;3.49;94.25;100603.59;4975870;28;20050;-47
2020/12/15 07:15:49;;;;;;;38.35;23.52;;;;;;;3.08;96.40;100603.91;4973298;28;20054;-49
2020/12/15 07:18:16;;;;;;;32.92;20.10;;;;;;;3.26;97.48;100599.84;4982055;28;20490;-45
2020/12/15 07:20:43;;;;;;;35.17;22.13;;;;;;;3.50;96.33;100598.59;4984138;28;20542;-49
2020/12/15 07:23:10;;;;;;;37.28;21.70;;;;;;;3.15;95.86;100594.22;4976724;28;20133;-48
2020/12/15 07:25:36;;;;;;;34.15;21.42;;;;;;;3.00;97.27;100591.72;4980543;28;20051;-46
2020/12/15 07:28:02;;;;;;;33.08;21.73;;;;;;;3.40;96.37;100593.84;4982097;28;20050;-46
2020/12/15 07:30:29;;;;;;;33.17;21.23;;;;;;;3.64;94.19;100593.41;4973309;28;20112;-50
2020/12/15 07:32:57;;;;;;;34.13;22.30;;;;;;;3.74;94.11;100603.19;4972816;28;20042;-49
2020/12/15 07:35:25;;;;;;;34.08;21.17;;;;;;;3.79;92.64;100616.97;4971895;28;20051;-51
2020/12/15 07:37:59;;;;;;;34.58;21.60;;;;;;;4.04;91.72;100607.31;4972093;28;20062;-51
2020/12/15 07:40:28;;;;;;;31.05;20.55;;;;;;;3.83;91.76;100609.59;4979013;28;20105;-43
2020/12/15 07:42:57;;;;;;;33.75;21.15;;;;;;;4.13;90.61;100604.38;4981496;28;20500;-44
2020/12/15 07:45:25;;;;;;;29.25;20.08;;;;;;;3.94;90.82;100599.16;4979329;28;20062;-43
2020/12/15 07:47:52;;;;;;;31.70;19.38;;;;;;;3.89;90.82;100596.41;4981633;28;20186;-46
2020/12/15 07:50:26;;;;;;;32.38;19.83;;;;;;;4.00;91.35;100596.94;4979638;28;20467;-45
2020/12/15 07:52:54;;;;;;;32.13;19.98;;;;;;;3.96;90.79;100597.56;4977970;28;20227;-47
2020/12/15 07:55:22;;;;;;;31.08;19.95;;;;;;;4.16;90.37;100602.00;4980183;28;20077;-47
2020/12/15 07:57:49;;;;;;;35.08;21.60;;;;;;;3.91;91.27;100604.06;4975424;28;20112;-51
2020/12/15 08:00:19;;;;;;;31.55;20.40;;;;;;;4.26;90.13;100609.25;4978986;28;20062;-43
2020/12/15 08:02:51;;;;;;;31.25;19.60;;;;;;;3.97;91.42;100601.84;4969050;28;20505;-47
2020/12/15 08:05:25;;;;;;;27.40;19.27;;;;;;;4.20;89.94;100614.00;4973825;28;20439;-45
2020/12/15 08:07:54;;;;;;;31.35;19.88;;;;;;;4.18;90.74;100602.06;4971691;28;20050;-43
2020/12/15 08:10:26;;;;;;;31.23;20.73;;;;;;;4.11;90.16;100607.59;4974171;28;20129;-46
2020/12/15 08:12:56;;;;;;;29.50;19.23;;;;;;;4.31;89.38;100601.88;4978594;28;20054;-45
2020/12/15 08:15:23;;;;;;;28.00;19.60;;;;;;;4.06;90.09;100605.69;4978504;28;20077;-44
2020/12/15 08:17:51;;;;;;;32.40;19.67;;;;;;;4.37;89.38;100607.22;4971741;28;20738;-44
2020/12/15 08:20:26;;;;;;;28.25;19.40;;;;;;;4.15;89.70;100610.38;4973482;28;20116;-45
2020/12/15 08:23:13;;;;;;;31.23;20.70;;;;;;;4.33;88.56;100618.00;4978437;28;20057;-46
2020/12/15 08:25:43;;;;;;;33.05;20.05;;;;;;;4.16;88.71;100628.97;4979815;28;20049;-47
2020/12/15 08:28:21;;;;;;;28.05;19.02;;;;;;;4.50;88.03;100632.41;4980513;28;20423;-46
2020/12/15 08:30:56;;;;;;;28.80;19.00;;;;;;;4.60;87.44;100624.44;4979443;28;20042;-46
2020/12/15 08:33:24;;;;;;;29.38;18.98;;;;;;;4.62;87.23;100628.69;4977842;28;20058;-46
2020/12/15 08:35:54;;;;;;;28.92;18.88;;;;;;;4.60;86.73;100621.91;4977788;28;20463;-46
2020/12/15 08:38:25;;;;;;;32.08;19.75;;;;;;;4.40;87.75;100619.19;4978497;28;20092;-45
2020/12/15 08:40:53;;;;;;;31.45;20.75;;;;;;;4.61;87.41;100617.69;4978657;28;20393;-48
2020/12/15 08:43:20;;;;;;;27.38;18.55;;;;;;;4.62;87.28;100626.16;4978343;28;20050;-51
2020/12/15 08:45:46;;;;;;;28.63;19.75;;;;;;;4.64;86.88;100616.97;4980496;28;20471;-43
2020/12/15 08:48:17;;;;;;;28.67;19.30;;;;;;;4.94;85.45;100615.03;4979449;28;20104;-47
2020/12/15 08:50:45;;;;;;;28.80;19.02;;;;;;;4.79;85.67;100623.66;4979691;28;20516;-46
2020/12/15 08:53:17;;;;;;;26.77;18.40;;;;;;;4.94;85.30;100623.50;4978922;28;20062;-45
2020/12/15 08:55:45;;;;;;;30.35;18.55;;;;;;;4.96;85.73;100615.97;4979819;28;20112;-52
2020/12/15 08:58:12;;;;;;;27.38;18.42;;;;;;;5.26;83.79;100621.59;4979105;28;20104;-49
2020/12/15 09:00:44;;;;;;;29.15;19.08;;;;;;;5.22;83.33;100617.16;4979879;28;20138;-46
2020/12/15 09:03:18;;;;;;;26.95;18.77;;;;;;;5.02;85.15;100614.59;4979238;28;20109;-47
2020/12/15 09:05:46;;;;;;;28.17;18.92;;;;;;;4.98;84.61;100610.16;4980210;28;20046;-44
2020/12/15 09:08:12;;;;;;;30.38;18.75;;;;;;;5.15;83.67;100610.09;4979037;28;20046;-44
2020/12/15 09:10:39;;;;;;;25.95;18.15;;;;;;;5.21;82.95;100618.84;4978597;28;20058;-45
2020/12/15 09:13:05;;;;;;;26.15;17.80;;;;;;;5.39;82.19;100628.09;4979687;28;20100;-48
2020/12/15 09:15:45;;;;;;;29.70;18.48;;;;;;;5.27;82.33;100628.41;4973339;28;20134;-49
2020/12/15 09:18:14;;;;;;;26.85;18.80;;;;;;;5.53;82.71;100625.38;4972075;28;20047;-44
2020/12/15 09:20:40;;;;;;;28.00;18.25;;;;;;;5.58;81.76;100620.50;4973700;28;20042;-44
2020/12/15 09:23:07;;;;;;;29.45;19.00;;;;;;;5.21;83.12;100615.44;4971175;28;20042;-45
2020/12/15 09:25:33;;;;;;;25.25;17.17;;;;;;;5.46;82.96;100610.69;4973583;28;20260;-45
2020/12/15 09:28:00;;;;;;;27.40;17.92;;;;;;;5.39;82.51;100612.88;4971287;28;20108;-45
2020/12/15 09:30:27;;;;;;;28.83;18.85;;;;;;;5.53;81.54;100601.66;4973878;28;20053;-48
2020/12/15 09:32:54;;;;;;;28.15;18.17;;;;;;;5.65;82.40;100597.13;4970699;28;20097;-44
2020/12/15 09:35:21;;;;;;;26.77;17.67;;;;;;;5.68;81.69;100593.81;4973291;28;20058;-49
2020/12/15 09:37:47;;;;;;;27.25;18.25;;;;;;;5.49;81.48;100592.16;4971130;28;20302;-44
2020/12/15 09:40:14;;;;;;;27.42;18.52;;;;;;;5.73;80.85;100592.34;4972396;28;20074;-46
2020/12/15 09:42:44;;;;;;;25.23;17.05;;;;;;;5.54;81.69;100589.00;4971875;28;20046;-45
2020/12/15 09:45:11;;;;;;;26.42;17.38;;;;;;;5.78;80.53;100583.28;4972018;28;20055;-44
2020/12/15 09:47:41;;;;;;;27.90;18.58;;;;;;;5.65;81.27;100593.72;4972506;28;20050;-46
2020/12/15 09:50:09;;;;;;;25.50;17.55;;;;;;;5.49;81.14;100582.84;4971494;28;20054;-50
2020/12/15 09:52:36;;;;;;;27.27;18.33;;;;;;;5.76;80.96;100590.81;4972577;28;20164;-48
2020/12/15 09:55:07;;;;;;;26.08;18.08;;;;;;;5.51;80.81;100580.41;4971189;28;20083;-49
2020/12/15 09:57:36;;;;;;;30.17;19.00;;;;;;;5.69;80.82;100591.38;4972786;28;20136;-45
2020/12/15 10:00:04;;;;;;;30.55;18.40;;;;;;;5.86;79.81;100603.13;4971143;28;20046;-48
2020/12/15 10:02:30;;;;;;;26.02;17.77;;;;;;;5.79;80.99;100603.66;4977286;28;20082;-49
2020/12/15 10:04:57;;;;;;;28.05;18.00;;;;;;;5.81;80.64;100613.88;4979881;28;20050;-43
2020/12/15 10:07:23;;;;;;;24.95;17.40;;;;;;;5.91;80.48;100597.38;4977114;28;20058;-46
2020/12/15 10:09:54;;;;;;;28.25;19.02;;;;;;;5.79;80.39;100588.44;4979681;28;20152;-50
2020/12/15 10:12:21;;;;;;;27.15;18.45;;;;;;;6.07;79.99;100589.63;4976976;28;20086;-46
2020/12/15 10:14:47;;;;;;;27.08;18.45;;;;;;;6.31;78.54;100597.41;4979306;28;20138;-44
2020/12/15 10:17:14;;;;;;;27.00;18.05;;;;;;;6.11;79.74;100597.44;4978255;28;20081;-47
2020/12/15 10:19:41;;;;;;;29.92;18.88;;;;;;;6.35;78.85;100592.50;4978876;28;20488;-45
2020/12/15 10:22:07;;;;;;;26.48;17.73;;;;;;;6.13;78.77;100587.34;4979451;28;20337;-47
2020/12/15 10:24:33;;;;;;;25.95;18.38;;;;;;;6.02;79.96;100579.28;4981573;28;20484;-50
2020/12/15 10:27:00;;;;;;;26.30;18.00;;;;;;;6.51;78.84;100575.31;4983440;28;20485;-44
2020/12/15 10:29:29;;;;;;;28.88;18.33;;;;;;;6.35;77.20;100568.75;4980763;28;20165;-52
2020/12/15 10:31:57;;;;;;;23.48;17.15;;;;;;;6.37;77.75;100573.06;4982859;28;20132;-46
2020/12/15 10:34:23;;;;;;;25.45;17.42;;;;;;;6.25;78.32;100567.50;4980409;28;20050;-51
2020/12/15 10:36:50;;;;;;;29.63;18.75;;;;;;;6.24;78.13;100570.88;4973936;28;20050;-45
2020/12/15 10:39:17;;;;;;;25.98;18.45;;;;;;;6.04;79.69;100566.63;4975609;28;20133;-45
2020/12/15 10:41:43;;;;;;;25.58;16.73;;;;;;;6.56;77.47;100567.09;4974641;28;20058;-46
2020/12/15 10:44:14;;;;;;;25.05;16.85;;;;;;;6.58;77.11;100562.91;4974765;28;20447;-46
2020/12/15 10:46:41;;;;;;;26.20;17.40;;;;;;;6.50;77.35;100571.03;4974803;28;20493;-44
2020/12/15 10:49:08;;;;;;;28.35;17.58;;;;;;;6.51;76.88;100562.59;4974344;28;20043;-45
2020/12/15 10:51:35;;;;;;;27.45;17.85;;;;;;;6.41;77.48;100568.13;4975275;28;20062;-46
2020/12/15 10:54:01;;;;;;;27.48;17.08;;;;;;;6.60;76.08;100566.38;4974010;28;20046;-47
2020/12/15 10:56:28;;;;;;;24.75;16.15;;;;;;;6.44;76.73;100575.91;4976392;28;20415;-46
2020/12/15 10:58:54;;;;;;;27.40;17.15;;;;;;;6.48;77.93;100580.31;4973520;28;21154;-46
2020/12/15 11:01:21;;;;;;;27.08;17.20;;;;;;;6.50;77.33;100577.00;4975641;28;20480;-46
2020/12/15 11:03:47;;;;;;;25.20;16.95;;;;;;;6.43;77.93;100569.94;4973417;28;20128;-45
2020/12/15 11:06:14;;;;;;;25.30;17.58;;;;;;;6.33;78.81;100576.34;4974595;28;20517;-47
2020/12/15 11:08:40;;;;;;;25.58;17.00;;;;;;;6.60;77.37;100570.59;4974436;28;20101;-44
2020/12/15 11:11:10;;;;;;;24.70;17.88;;;;;;;6.31;78.83;100564.34;4973787;28;20055;-47
2020/12/15 11:13:36;;;;;;;26.33;18.05;;;;;;;6.25;78.77;100567.50;4974723;28;20064;-46
2020/12/15 11:16:03;;;;;;;23.80;16.50;;;;;;;6.50;77.71;100576.13;4973417;28;20047;-44
2020/12/15 11:18:29;;;;;;;23.77;16.48;;;;;;;6.60;76.36;100568.91;4977108;28;20106;-46
2020/12/15 11:20:57;;;;;;;24.80;16.88;;;;;;;6.98;75.44;100564.47;4982066;28;20066;-47
2020/12/15 11:23:23;;;;;;;25.27;17.00;;;;;;;6.86;76.55;100558.91;4979125;28;20054;-46